Yocumtown, Pennsylvania
Current Conditions -  °F | °C
As of 1:56 AM on Thursday 18 Dec 2014 (Local Time) from KMDT Reporting Station
Broken Clouds Broken Clouds  
Wind Chill: 25°   Ceiling: 4500
Heat Index: 35°   Visibility: 10mi
Dew Point: 20°   Wind: 17mph
Humidity: 54%   Direction: 310°NW
Pressure: 30.05"   Gusts: 24mph
Location:  40.1451°N, 76.7914°W
Report Text: KMDT 180656Z 31015G21KT 10SM BKN045 02/M07 A3005 RMK AO2 SLP178 T00171067
Loading
Personal Weather Stations






























Interactive Weather Map New forecast layout! Learn more

10-Day Weather Forecast

Advertisements
Track Severe Weather on mobile